createdAt,value
2018-05-27T00:00:05.914Z,5
2018-05-27T00:00:46.695Z,7
2018-05-27T00:10:47.178Z,6
2018-05-27T00:20:46.782Z,8
2018-05-27T00:30:46.614Z,6
2018-05-27T00:40:46.711Z,6
2018-05-27T00:50:46.595Z,6
2018-05-27T01:00:46.550Z,7
2018-05-27T01:10:46.536Z,7
2018-05-27T01:20:46.757Z,8
2018-05-27T01:30:47.523Z,7
2018-05-27T01:40:46.808Z,7
2018-05-27T01:50:46.616Z,6
2018-05-27T02:00:47.365Z,6
2018-05-27T02:10:46.567Z,7
2018-05-27T02:20:46.507Z,6
2018-05-27T02:30:46.549Z,6
2018-05-27T02:40:46.506Z,6
2018-05-27T02:50:47.295Z,7
2018-05-27T03:00:46.567Z,8
2018-05-27T03:10:46.460Z,6
2018-05-27T03:20:46.564Z,7
2018-05-27T03:30:46.505Z,7
2018-05-27T03:40:46.500Z,7
2018-05-27T03:50:46.561Z,7
2018-05-27T04:00:46.459Z,7
2018-05-27T04:10:46.425Z,7
2018-05-27T04:20:46.566Z,7
2018-05-27T04:30:46.576Z,7
2018-05-27T04:40:46.611Z,7
2018-05-27T04:50:46.548Z,8
2018-05-27T05:00:46.450Z,6
2018-05-27T05:10:46.574Z,7
2018-05-27T05:20:46.552Z,7
2018-05-27T05:30:46.642Z,7
2018-05-27T05:40:48.148Z,8
2018-05-27T05:50:46.506Z,7
2018-05-27T06:00:46.591Z,8
2018-05-27T06:10:46.530Z,7
2018-05-27T06:20:46.524Z,6
2018-05-27T06:30:46.545Z,5
2018-05-27T06:40:46.420Z,6
2018-05-27T06:50:46.531Z,5
2018-05-27T07:00:46.474Z,5
2018-05-27T07:10:46.559Z,5
2018-05-27T07:20:46.529Z,5
2018-05-27T07:30:46.492Z,5
2018-05-27T07:40:46.584Z,5
2018-05-27T07:50:46.505Z,5
2018-05-27T08:00:46.639Z,5
2018-05-27T08:10:46.570Z,5
2018-05-27T08:20:46.577Z,5
2018-05-27T08:30:46.596Z,5
2018-05-27T08:40:46.911Z,5
2018-05-27T08:50:46.790Z,5
2018-05-27T09:00:46.841Z,5
2018-05-27T09:10:46.743Z,6
2018-05-27T09:20:47.060Z,6
2018-05-27T09:30:46.585Z,7
2018-05-27T09:40:46.613Z,6
2018-05-27T09:50:47.475Z,6
2018-05-27T10:00:47.404Z,7
2018-05-27T10:10:46.633Z,7
2018-05-27T10:20:47.203Z,7
2018-05-27T10:30:46.896Z,7
2018-05-27T10:40:46.873Z,8
2018-05-27T10:50:46.850Z,8
2018-05-27T11:00:46.830Z,8
2018-05-27T11:10:46.655Z,7
2018-05-27T11:20:46.791Z,6
2018-05-27T11:30:46.989Z,8
2018-05-27T11:40:47.011Z,8
2018-05-27T11:50:46.646Z,9
2018-05-27T12:00:48.604Z,8
2018-05-27T12:12:14.903Z,8
2018-05-27T12:22:27.765Z,7
2018-05-27T12:32:17.624Z,7
2018-05-27T12:42:21.529Z,7
2018-05-27T12:51:02.783Z,8
2018-05-27T13:01:02.360Z,8
2018-05-27T13:11:52.543Z,7
2018-05-27T13:21:24.574Z,7
2018-05-27T13:30:46.975Z,8
2018-05-27T13:40:46.777Z,8
2018-05-27T13:50:46.739Z,7
2018-05-27T14:00:46.863Z,6
2018-05-27T14:10:46.960Z,6
2018-05-27T14:20:46.836Z,6
2018-05-27T14:30:46.723Z,6
2018-05-27T14:40:47.797Z,7
2018-05-27T14:50:46.778Z,6
2018-05-27T15:00:46.745Z,7
2018-05-27T15:10:46.741Z,7
2018-05-27T15:20:46.774Z,8
2018-05-27T15:30:46.645Z,8
2018-05-27T15:40:48.352Z,9
2018-05-27T15:50:48.476Z,8
2018-05-27T16:00:46.831Z,9
2018-05-27T16:10:47.656Z,9
2018-05-27T16:20:46.919Z,8
2018-05-27T16:30:46.749Z,8
2018-05-27T16:40:47.129Z,7
2018-05-27T16:50:47.009Z,8
2018-05-27T17:00:47.193Z,9
2018-05-27T17:10:46.917Z,8
2018-05-27T17:20:47.031Z,8
2018-05-27T17:30:46.869Z,8
2018-05-27T17:40:46.975Z,7
2018-05-27T17:50:47.702Z,17
2018-05-27T18:00:46.927Z,8
2018-05-27T18:10:46.961Z,9
2018-05-27T18:20:46.806Z,8
2018-05-27T18:30:47.183Z,8
2018-05-27T18:40:46.647Z,9
2018-05-27T18:50:46.804Z,10
2018-05-27T19:00:47.408Z,18
2018-05-27T19:10:46.927Z,12
2018-05-27T19:20:47.176Z,11
2018-05-27T19:30:46.843Z,11
2018-05-27T19:40:47.139Z,12
2018-05-27T19:50:46.962Z,15
2018-05-27T20:00:47.314Z,12
2018-05-27T20:10:47.213Z,12
2018-05-27T20:20:48.375Z,10
2018-05-27T20:30:47.005Z,11
2018-05-27T20:40:50.131Z,11
2018-05-27T20:50:47.019Z,12
2018-05-27T21:00:50.770Z,13
2018-05-27T21:10:46.987Z,14
2018-05-27T21:20:49.597Z,13
2018-05-27T21:30:52.116Z,13
2018-05-27T21:40:52.977Z,14
2018-05-27T21:50:47.554Z,17
2018-05-27T22:01:00.236Z,14
2018-05-27T22:11:00.773Z,16
2018-05-27T22:20:47.903Z,16
2018-05-27T22:30:46.892Z,18
2018-05-27T22:40:47.546Z,18
2018-05-27T22:50:46.773Z,17
2018-05-27T23:00:48.062Z,17
2018-05-27T23:10:54.162Z,17
2018-05-27T23:20:46.844Z,20
2018-05-27T23:30:47.067Z,20
2018-05-27T23:40:55.185Z,19
2018-05-27T23:50:47.098Z,22
